Terminal Aerodrome Forecast
Issued by NWS Des Moines, IA

Home | Current Version | Previous Version | Text Only | Print | Product List | Glossary On
Versions: 1 2 3 4 5 6 7 8 9 10 11 12 13 14 15 16 17 18 19 20 21 22 23 24 25 26 27 28 29
000
FTUS43 KDMX 281917 AAC
TAFALO
TAF AMD
KALO 281917Z 2819/2918 VRB03KT 3SM BR VCSH BKN010
      TEMPO 2819/2821 1 1/2SM -RA BR BKN008
     FM282300 04009KT P6SM OVC008
     FM290700 03005KT 4SM BR OVC003
     FM291400 05009KT 6SM BR BKN009
     FM291600 05010KT P6SM BKN015=

USA.gov is the U.S. government's official web portal to all federal, state and local government web resources and services.